Time;durP1;ratioP1;P1;durP2;ratioP2;P2;SDS_P1;SDS_P2;PMS_P1;PMS_P2;Temp;Humidity;BMP_temperature;BMP_pressure;BME280_temperature;BME280_humidity;BME280_pressure;Samples;Min_cycle;Max_cycle;Signal;HPM_P1;HPM_P2
2022/11/06 00:01:16;;;;;;;;;;;11.00;99.90;;;8.80;100.00;100080.34;10335120;28;20001;-86
2022/11/06 00:11:41;;;;;;;;;;;10.90;99.90;;;8.79;100.00;100083.16;10328413;28;19934;-87
2022/11/06 00:16:45;;;;;;;;;;;11.00;99.90;;;8.81;100.00;100081.16;10352391;28;20455;-87
2022/11/06 00:21:48;;;;;;;;;;;11.00;99.90;;;8.80;100.00;100082.16;10346989;28;19933;-87
2022/11/06 00:26:51;;;;;;;;;;;10.90;99.90;;;8.74;100.00;100066.91;10332278;28;20024;-87
2022/11/06 00:31:56;;;;;;;;;;;10.90;99.90;;;8.78;100.00;100078.84;10335287;28;19938;-87
2022/11/06 00:36:59;;;;;;;;;;;10.90;99.90;;;8.79;100.00;100080.50;10310447;28;19937;-85
2022/11/06 00:42:02;;;;;;;;;;;11.00;99.90;;;8.80;100.00;100084.81;10318604;28;19934;-85
2022/11/06 00:47:05;;;;;;;;;;;10.90;99.90;;;8.79;100.00;100085.81;10345181;28;20025;-85
2022/11/06 00:52:07;;;;;;;;;;;10.90;99.90;;;8.76;100.00;100086.97;10357984;28;20343;-85
2022/11/06 00:57:10;;;;;;;;;;;10.90;99.90;;;8.76;100.00;100084.31;10335700;28;19941;-84
2022/11/06 01:02:13;;;;;;;;;;;10.90;99.90;;;8.75;100.00;100081.78;10347026;28;19992;-85
2022/11/06 01:07:17;;;;;;;;;;;10.90;99.90;;;8.78;100.00;100087.63;10337116;28;20036;-85
2022/11/06 01:12:20;;;;;;;;;;;10.90;99.90;;;8.78;100.00;100084.16;10339600;28;19933;-84
2022/11/06 01:17:23;;;;;;;;;;;10.90;99.90;;;8.79;100.00;100091.94;10341947;28;19942;-85
2022/11/06 01:22:26;;;;;;;;;;;10.90;99.90;;;8.78;100.00;100097.41;10337149;28;19987;-85
2022/11/06 01:27:28;;;;;;;;;;;10.90;99.90;;;8.77;100.00;100096.56;10356495;28;19941;-84
2022/11/06 01:32:32;;;;;;;;;;;10.90;99.90;;;8.77;100.00;100085.97;10345521;28;20393;-85
2022/11/06 01:37:35;;;;;;;;;;;10.90;99.90;;;8.76;100.00;100089.59;10347602;28;19933;-84
2022/11/06 01:42:38;;;;;;;;;;;10.90;99.90;;;8.77;100.00;100091.25;10344690;28;19973;-86
2022/11/06 01:47:42;;;;;;;;;;;10.90;99.90;;;8.80;100.00;100084.81;10358052;28;19980;-85
2022/11/06 01:52:47;;;;;;;;;;;10.90;99.90;;;8.77;100.00;100088.63;10339303;28;19933;-85
2022/11/06 01:57:50;;;;;;;;;;;10.90;99.90;;;8.76;100.00;100092.25;10350324;28;19934;-85
2022/11/06 02:02:53;;;;;;;;;;;10.90;99.90;;;8.75;100.00;100098.53;10314555;28;19938;-83
2022/11/06 02:07:57;;;;;;;;;;;10.90;99.90;;;8.81;100.00;100108.47;10337538;28;19934;-82
2022/11/06 02:13:22;;;;;;;;;;;11.00;99.90;;;8.84;100.00;100105.53;10329302;28;20468;-83
2022/11/06 02:18:37;;;;;;;;;;;11.00;99.90;;;8.86;100.00;100108.00;10356021;28;19941;-83
2022/11/06 02:23:44;;;;;;;;;;;11.00;99.90;;;8.84;100.00;100108.19;10362297;28;19980;-83
2022/11/06 02:28:54;;;;;;;;;;;11.00;99.90;;;8.84;100.00;100112.66;10337907;28;19938;-83
2022/11/06 02:34:03;;;;;;;;;;;11.00;99.90;;;8.83;100.00;100103.06;10339784;28;19940;-83
2022/11/06 02:39:10;;;;;;;;;;;11.00;99.90;;;8.82;100.00;100101.41;10330783;28;19934;-83
2022/11/06 02:44:17;;;;;;;;;;;11.00;99.90;;;8.81;100.00;100115.59;10321366;28;19940;-83
2022/11/06 02:49:55;;;;;;;;;;;11.00;99.90;;;8.81;100.00;100127.03;10341302;28;20044;-83
2022/11/06 02:55:21;;;;;;;;;;;11.00;99.90;;;8.80;100.00;100122.72;10331366;28;19934;-83
2022/11/06 03:00:25;;;;;;;;;;;10.90;99.90;;;8.82;100.00;100138.50;10342671;28;19941;-84
2022/11/06 03:05:52;;;;;;;;;;;10.90;99.90;;;8.82;100.00;100141.97;10352190;28;19941;-86
2022/11/06 03:10:55;;;;;;;;;;;11.00;99.90;;;8.81;100.00;100148.22;10350649;28;20798;-84
2022/11/06 03:16:11;;;;;;;;;;;11.00;99.90;;;8.81;100.00;100153.53;10357981;28;19934;-84
2022/11/06 03:21:26;;;;;;;;;;;11.00;99.90;;;8.81;100.00;100150.88;10336806;28;19938;-85
2022/11/06 03:26:34;;;;;;;;;;;10.90;99.90;;;8.79;100.00;100142.28;10332435;28;19985;-84
2022/11/06 03:31:45;;;;;;;;;;;11.00;99.90;;;8.78;100.00;100160.97;10336578;28;19934;-85
2022/11/06 03:36:55;;;;;;;;;;;10.90;99.90;;;8.76;100.00;100171.75;10329609;28;19934;-85
2022/11/06 03:42:11;;;;;;;;;;;10.90;99.90;;;8.77;100.00;100161.97;10327534;28;19996;-85
2022/11/06 03:47:27;;;;;;;;;;;10.90;99.90;;;8.77;100.00;100167.28;10339519;28;19933;-84
2022/11/06 03:52:34;;;;;;;;;;;10.90;99.90;;;8.78;100.00;100171.56;10351216;28;19938;-84
2022/11/06 03:57:40;;;;;;;;;;;10.90;99.90;;;8.80;100.00;100173.06;10344080;28;20378;-84
2022/11/06 04:02:49;;;;;;;;;;;11.00;99.90;;;8.81;100.00;100177.38;10354041;28;19934;-84
2022/11/06 04:18:41;;;;;;;;;;;10.90;99.90;;;8.80;100.00;100174.88;10349033;28;19981;-84
2022/11/06 04:29:36;;;;;;;;;;;10.90;99.90;;;8.77;100.00;100186.66;10358301;28;19935;-84
2022/11/06 04:35:00;;;;;;;;;;;10.90;99.90;;;8.78;100.00;100190.94;10342593;28;20040;-84
2022/11/06 04:40:25;;;;;;;;;;;10.90;99.90;;;8.79;100.00;100191.78;10346682;28;19934;-84
2022/11/06 04:45:40;;;;;;;;;;;10.90;99.90;;;8.77;100.00;100184.00;10361949;28;19933;-84
2022/11/06 04:50:49;;;;;;;;;;;10.90;99.90;;;8.78;100.00;100182.19;10348187;28;19934;-84
2022/11/06 04:55:55;;;;;;;;;;;10.90;99.90;;;8.77;100.00;100181.34;10359265;28;19938;-84
2022/11/06 05:00:57;;;;;;;;;;;10.90;99.90;;;8.77;100.00;100186.66;10340376;28;19985;-86
2022/11/06 05:06:00;;;;;;;;;;;10.90;99.90;;;8.79;100.00;100187.31;10336690;28;20024;-84
2022/11/06 05:11:03;;;;;;;;;;;10.90;99.90;;;8.81;100.00;100187.97;10304121;28;20021;-84
2022/11/06 05:16:06;;;;;;;;;;;10.90;99.90;;;8.83;100.00;100191.31;10341865;28;20036;-84
2022/11/06 05:26:31;;;;;;;;;;;11.00;99.90;;;8.82;100.00;100194.97;10330927;28;19961;-84
2022/11/06 05:31:34;;;;;;;;;;;11.00;99.90;;;8.81;100.00;100197.75;10345818;28;19941;-84
2022/11/06 05:36:37;;;;;;;;;;;10.90;99.90;;;8.82;100.00;100197.63;10347296;28;19940;-84
2022/11/06 05:41:40;;;;;;;;;;;10.90;99.90;;;8.83;100.00;100209.03;10340580;28;19940;-84
2022/11/06 05:46:43;;;;;;;;;;;10.90;99.90;;;8.82;100.00;100218.81;10361522;28;20008;-82
2022/11/06 05:51:51;;;;;;;;;;;11.00;99.90;;;8.83;100.00;100219.63;10355984;28;20021;-82
2022/11/06 05:56:54;;;;;;;;;;;11.00;99.90;;;8.84;100.00;100229.25;10360216;28;20028;-82
2022/11/06 06:01:58;;;;;;;;;;;11.00;99.90;;;8.84;100.00;100230.06;10330637;28;19985;-82
2022/11/06 06:07:01;;;;;;;;;;;11.00;99.90;;;8.86;100.00;100240.50;10355823;28;19940;-82
2022/11/06 06:12:04;;;;;;;;;;;11.00;99.90;;;8.88;100.00;100254.47;10339210;28;19934;-82
2022/11/06 06:17:07;;;;;;;;;;;11.00;99.90;;;8.91;100.00;100261.25;10351056;28;19985;-82
2022/11/06 06:22:09;;;;;;;;;;;11.00;99.90;;;8.93;100.00;100269.88;10351694;28;20432;-82
2022/11/06 06:27:12;;;;;;;;;;;11.10;99.90;;;8.92;100.00;100273.50;10358631;28;19941;-83
2022/11/06 06:32:15;;;;;;;;;;;11.10;99.90;;;8.92;100.00;100274.34;10364030;28;19941;-83
2022/11/06 06:37:18;;;;;;;;;;;11.10;99.90;;;8.93;100.00;100275.16;10305435;28;19934;-83
2022/11/06 06:42:22;;;;;;;;;;;11.10;99.90;;;8.94;100.00;100280.34;10330177;28;20429;-83
2022/11/06 06:47:31;;;;;;;;;;;11.10;99.90;;;8.95;100.00;100289.94;10326714;28;20599;-80
2022/11/06 06:52:34;;;;;;;;;;;11.10;99.90;;;8.96;100.00;100296.91;10358165;28;20017;-82
2022/11/06 06:57:37;;;;;;;;;;;11.10;99.90;;;8.99;100.00;100301.06;10328298;28;20311;-82
2022/11/06 07:02:40;;;;;;;;;;;11.10;99.90;;;8.98;100.00;100294.91;10285717;28;20319;-82
2022/11/06 07:07:42;;;;;;;;;;;11.20;99.90;;;9.00;100.00;100300.09;10334140;28;20329;-82
2022/11/06 07:12:45;;;;;;;;;;;11.20;99.90;;;9.03;100.00;100305.06;10315611;28;19935;-82
2022/11/06 07:17:48;;;;;;;;;;;11.20;99.90;;;9.06;100.00;100308.25;10302679;28;19934;-82
2022/11/06 07:22:51;;;;;;;;;;;11.20;99.90;;;9.10;100.00;100306.94;10327330;28;19938;-82
2022/11/06 07:27:54;;;;;;;;;;;11.20;99.90;;;9.16;100.00;100315.25;10298840;28;19933;-82
2022/11/06 07:33:04;;;;;;;;;;;11.30;99.90;;;9.18;100.00;100319.44;10333320;28;20369;-82
2022/11/06 07:38:07;;;;;;;;;;;11.30;99.90;;;9.19;100.00;100322.91;10334942;28;19935;-82
2022/11/06 07:43:10;;;;;;;;;;;11.40;99.90;;;9.19;100.00;100331.69;10336200;28;19934;-82
2022/11/06 07:48:13;;;;;;;;;;;11.30;99.90;;;9.20;100.00;100324.56;10317728;28;19986;-81
2022/11/06 07:53:16;;;;;;;;;;;11.30;99.90;;;9.21;100.00;100334.19;10336529;28;20132;-82
2022/11/06 07:58:21;;;;;;;;;;;11.30;99.90;;;9.24;100.00;100336.53;10370426;28;19941;-82
2022/11/06 08:03:24;;;;;;;;;;;11.30;99.90;;;9.24;100.00;100324.13;10358613;28;19969;-82
2022/11/06 08:08:27;;;;;;;;;;;11.40;99.90;;;9.27;100.00;100326.44;10350350;28;19937;-82
2022/11/06 08:13:32;;;;;;;;;;;11.40;99.90;;;9.31;100.00;100329.63;10364944;28;19934;-80
2022/11/06 08:18:35;;;;;;;;;;;11.40;99.90;;;9.35;100.00;100334.44;10348991;28;19934;-81
2022/11/06 08:23:38;;;;;;;;;;;11.50;99.90;;;9.38;100.00;100339.44;10355861;28;20373;-81
2022/11/06 08:28:43;;;;;;;;;;;11.60;99.90;;;9.44;100.00;100347.75;10350710;28;19984;-82
2022/11/06 08:33:46;;;;;;;;;;;11.60;99.90;;;9.45;100.00;100336.16;10354427;28;19965;-82
2022/11/06 08:38:49;;;;;;;;;;;11.60;99.90;;;9.49;100.00;100337.50;10364479;28;20009;-82
2022/11/06 08:43:51;;;;;;;;;;;11.60;99.90;;;9.54;100.00;100341.38;10338289;28;19933;-82
2022/11/06 08:48:54;;;;;;;;;;;11.70;99.90;;;9.58;100.00;100339.22;10364254;28;19941;-82
2022/11/06 08:53:57;;;;;;;;;;;11.70;99.90;;;9.62;100.00;100343.22;10348385;28;19933;-82
2022/11/06 08:59:00;;;;;;;;;;;11.70;99.90;;;9.67;100.00;100338.28;10361198;28;20361;-81
2022/11/06 09:04:03;;;;;;;;;;;11.80;99.90;;;9.74;100.00;100339.28;10348510;28;19934;-81
2022/11/06 09:09:06;;;;;;;;;;;11.90;99.90;;;9.78;100.00;100339.81;10348418;28;19940;-81
2022/11/06 09:14:09;;;;;;;;;;;11.90;99.90;;;9.82;100.00;100331.34;10333889;28;19933;-81
2022/11/06 09:19:12;;;;;;;;;;;11.90;99.90;;;9.85;100.00;100328.41;10352452;28;19980;-81
2022/11/06 09:24:14;;;;;;;;;;;12.00;99.90;;;9.88;100.00;100325.41;10355891;28;20019;-81
2022/11/06 09:29:17;;;;;;;;;;;12.10;99.90;;;9.92;100.00;100321.44;10348819;28;19933;-81
2022/11/06 09:34:20;;;;;;;;;;;12.10;99.90;;;9.95;100.00;100324.78;10364448;28;19969;-81
2022/11/06 09:39:23;;;;;;;;;;;12.10;99.90;;;10.00;100.00;100312.69;10335816;28;20457;-81
2022/11/06 09:44:34;;;;;;;;;;;12.20;99.90;;;10.08;100.00;100314.56;10348201;28;19934;-81
2022/11/06 09:49:46;;;;;;;;;;;12.20;99.90;;;10.16;100.00;100312.72;10361228;28;19940;-81
2022/11/06 09:54:55;;;;;;;;;;;12.30;99.90;;;10.26;100.00;100311.81;10349666;28;19934;-81
2022/11/06 10:00:06;;;;;;;;;;;12.40;99.90;;;10.35;100.00;100321.44;10357009;28;20040;-81
2022/11/06 10:05:21;;;;;;;;;;;12.50;99.90;;;10.44;100.00;100320.47;10312086;28;19933;-81
2022/11/06 10:10:39;;;;;;;;;;;12.60;99.90;;;10.51;100.00;100310.00;10345088;28;20421;-81
2022/11/06 10:15:50;;;;;;;;;;;12.70;99.90;;;10.60;100.00;100309.84;10348803;28;19941;-81
2022/11/06 10:21:07;;;;;;;;;;;12.80;99.90;;;10.70;100.00;100315.00;10349590;28;19962;-81
2022/11/06 10:26:16;;;;;;;;;;;12.90;99.90;;;10.79;100.00;100307.84;10329577;28;19934;-81
2022/11/06 10:31:37;;;;;;;;;;;13.00;99.90;;;10.88;100.00;100312.16;10326462;28;19941;-80
2022/11/06 10:36:49;;;;;;;;;;;13.10;99.90;;;10.94;100.00;100307.00;10344246;28;19933;-81
2022/11/06 10:42:01;;;;;;;;;;;13.20;99.90;;;11.05;100.00;100302.34;10330827;28;19948;-81
2022/11/06 10:47:20;;;;;;;;;;;13.30;99.90;;;11.12;100.00;100295.38;10340751;28;20320;-81
2022/11/06 10:52:41;;;;;;;;;;;13.40;99.90;;;11.14;100.00;100288.03;10341097;28;19941;-81
2022/11/06 10:58:08;;;;;;;;;;;13.40;99.90;;;11.17;100.00;100293.03;10350878;28;19933;-83
2022/11/06 11:03:20;;;;;;;;;;;13.40;99.90;;;11.22;100.00;100288.03;10374207;28;19934;-79
2022/11/06 11:08:29;;;;;;;;;;;13.40;99.90;;;11.26;100.00;100276.88;10358145;28;19940;-79
2022/11/06 11:13:32;;;;;;;;;;;13.50;99.90;;;11.32;100.00;100274.53;10373135;28;19933;-79
2022/11/06 11:18:39;;;;;;;;;;;13.50;99.90;;;11.40;100.00;100264.72;10350945;28;19934;-79
2022/11/06 11:23:42;;;;;;;;;;;13.60;99.90;;;11.46;100.00;100257.88;10339901;28;19933;-79
2022/11/06 11:28:56;;;;;;;;;;;13.70;99.90;;;11.50;100.00;100260.00;10343065;28;19977;-79
2022/11/06 11:34:03;;;;;;;;;;;13.80;99.90;;;11.55;100.00;100261.31;10339414;28;20019;-79
2022/11/06 11:39:07;;;;;;;;;;;13.80;99.90;;;11.58;100.00;100259.16;10331434;28;19989;-85
2022/11/06 11:44:09;;;;;;;;;;;13.80;99.90;;;11.62;100.00;100246.31;10319527;28;19938;-79
2022/11/06 11:49:28;;;;;;;;;;;13.90;99.90;;;11.63;100.00;100248.78;10352230;28;20420;-79
2022/11/06 11:54:34;;;;;;;;;;;13.90;99.90;;;11.71;100.00;100243.44;10334481;28;20364;-79
2022/11/06 11:59:42;;;;;;;;;;;14.00;99.90;;;11.73;100.00;100245.94;10353469;28;19987;-79
2022/11/06 12:04:50;;;;;;;;;;;14.00;99.90;;;11.73;100.00;100248.59;10381160;28;19934;-79
2022/11/06 12:09:53;;;;;;;;;;;14.00;99.90;;;11.76;100.00;100242.94;10348782;28;19934;-79
2022/11/06 12:15:27;;;;;;;;;;;14.00;99.90;;;11.76;100.00;100249.09;10328699;28;19940;-79
2022/11/06 12:20:54;;;;;;;;;;;14.00;99.90;;;11.67;100.00;100250.09;10327711;28;19985;-80
2022/11/06 12:26:24;;;;;;;;;;;14.00;99.90;;;11.66;100.00;100247.63;10340601;28;20028;-83
2022/11/06 12:32:01;;;;;;;;;;;13.90;99.90;;;11.63;100.00;100245.31;10353397;28;19934;-80
2022/11/06 12:37:42;;;;;;;;;;;13.90;99.90;;;11.58;100.00;100250.34;10344578;28;19934;-80
2022/11/06 12:43:09;;;;;;;;;;;13.90;99.90;;;11.61;100.00;100244.66;10360307;28;19934;-80
2022/11/06 12:48:43;;;;;;;;;;;13.90;99.90;;;11.62;100.00;100243.66;10345398;28;19977;-80
2022/11/06 12:53:50;;;;;;;;;;;13.90;99.90;;;11.66;100.00;100250.28;10360920;28;20274;-80
2022/11/06 12:59:08;;;;;;;;;;;13.90;99.90;;;11.73;100.00;100248.59;10345337;28;19941;-80
2022/11/06 13:04:33;;;;;;;;;;;14.00;99.90;;;11.80;100.00;100245.03;10332083;28;31234;-80
2022/11/06 13:09:48;;;;;;;;;;;14.10;99.90;;;11.84;100.00;100250.91;10336321;28;19985;-81
2022/11/06 13:15:09;;;;;;;;;;;14.10;99.90;;;11.91;100.00;100243.84;10349782;28;19941;-81
2022/11/06 13:20:24;;;;;;;;;;;14.20;99.90;;;11.91;100.00;100251.84;10347213;28;19934;-81
2022/11/06 13:25:53;;;;;;;;;;;14.20;99.90;;;11.90;100.00;100250.19;10352063;28;20381;-81
2022/11/06 13:30:57;;;;;;;;;;;14.10;99.90;;;11.88;100.00;100248.72;10341888;28;19956;-81
2022/11/06 13:36:01;;;;;;;;;;;14.10;99.90;;;11.83;100.00;100240.44;10346021;28;19937;-81
2022/11/06 13:41:36;;;;;;;;;;;14.00;99.90;;;11.82;100.00;100244.94;10333974;28;19985;-81
2022/11/06 13:47:03;;;;;;;;;;;14.00;99.90;;;11.86;100.00;100251.53;10303575;28;19993;-81
2022/11/06 13:52:15;;;;;;;;;;;14.10;99.90;;;11.88;100.00;100252.22;10348242;28;20029;-81
2022/11/06 13:57:51;;;;;;;;;;;14.10;99.90;;;11.88;100.00;100238.91;10300963;28;20057;-81
2022/11/06 14:03:26;;;;;;;;;;;14.10;99.90;;;11.95;100.00;100234.53;10317851;28;19934;-81
2022/11/06 14:08:41;;;;;;;;;;;14.10;99.90;;;12.03;100.00;100234.47;10334473;28;19934;-81
2022/11/06 14:13:59;;;;;;;;;;;14.30;99.90;;;12.02;100.00;100232.81;10327448;28;19934;-81
2022/11/06 14:19:21;;;;;;;;;;;14.30;99.90;;;11.96;100.00;100233.50;10311657;28;19934;-81
2022/11/06 14:24:41;;;;;;;;;;;14.20;99.90;;;11.93;100.00;100233.84;10303919;28;19941;-81
2022/11/06 14:30:01;;;;;;;;;;;14.20;99.90;;;11.82;100.00;100231.63;10301451;28;19941;-81
2022/11/06 14:35:30;;;;;;;;;;;14.10;99.90;;;11.67;100.00;100236.81;10319759;28;20231;-81
2022/11/06 14:40:33;;;;;;;;;;;13.90;99.90;;;11.52;100.00;100228.72;10337608;28;19960;-81
2022/11/06 14:45:36;;;;;;;;;;;13.70;99.90;;;11.40;100.00;100238.09;10318577;28;19938;-81
2022/11/06 14:50:40;;;;;;;;;;;13.60;99.90;;;11.30;100.00;100236.63;10318159;28;19934;-81
2022/11/06 14:55:54;;;;;;;;;;;13.50;99.90;;;11.22;100.00;100233.00;10331870;28;20599;-81
2022/11/06 15:01:08;;;;;;;;;;;13.40;99.90;;;11.14;100.00;100234.84;10343151;28;19967;-79
2022/11/06 15:06:15;;;;;;;;;;;13.30;99.90;;;11.04;100.00;100236.88;10343622;28;19940;-80
2022/11/06 15:11:41;;;;;;;;;;;13.20;99.90;;;10.95;100.00;100233.41;10337825;28;19941;-80
2022/11/06 15:16:53;;;;;;;;;;;13.10;99.90;;;10.86;100.00;100240.56;10331181;28;20449;-80
2022/11/06 15:22:07;;;;;;;;;;;13.00;99.90;;;10.74;100.00;100236.59;10349162;28;20337;-80
2022/11/06 15:27:19;;;;;;;;;;;12.90;99.90;;;10.70;100.00;100238.75;10332760;28;19941;-80
2022/11/06 15:32:24;;;;;;;;;;;12.90;99.90;;;10.62;100.00;100238.78;10339192;28;19940;-80
2022/11/06 15:37:39;;;;;;;;;;;12.80;99.90;;;10.54;100.00;100251.22;10340055;28;19934;-80
2022/11/06 15:42:42;;;;;;;;;;;12.80;99.90;;;10.42;100.00;100251.53;10350423;28;20457;-80
2022/11/06 15:48:18;;;;;;;;;;;12.60;99.90;;;10.26;100.00;100256.03;10367269;28;19986;-81
2022/11/06 15:53:24;;;;;;;;;;;12.50;99.90;;;10.10;100.00;100248.81;10349135;28;20402;-80
2022/11/06 15:58:35;;;;;;;;;;;12.30;99.90;;;9.94;100.00;100254.91;10351876;28;19940;-81
2022/11/06 16:03:53;;;;;;;;;;;12.10;99.90;;;9.80;100.00;100253.72;10372266;28;20037;-81
2022/11/06 16:08:57;;;;;;;;;;;12.00;99.90;;;9.64;100.00;100256.31;10351850;28;20089;-82
2022/11/06 16:14:00;;;;;;;;;;;11.80;99.90;;;9.46;100.00;100255.59;10345773;28;20310;-82
2022/11/06 16:19:23;;;;;;;;;;;11.60;99.90;;;9.32;100.00;100265.81;10346146;28;20000;-81
2022/11/06 16:24:29;;;;;;;;;;;11.50;99.90;;;9.20;100.00;100279.50;10346712;28;19981;-81
2022/11/06 16:29:32;;;;;;;;;;;11.40;99.90;;;9.12;100.00;100280.28;10364306;28;19969;-81
2022/11/06 16:34:42;;;;;;;;;;;11.30;99.90;;;9.04;100.00;100282.88;10352360;28;19940;-82
2022/11/06 16:39:51;;;;;;;;;;;11.20;99.90;;;8.98;100.00;100289.63;10333746;28;19941;-86
2022/11/06 16:45:18;;;;;;;;;;;11.20;99.90;;;8.91;100.00;100290.41;10340669;28;20054;-89
2022/11/06 16:50:52;;;;;;;;;;;11.10;99.90;;;8.83;100.00;100291.19;10354165;28;20037;-85
2022/11/06 16:55:56;;;;;;;;;;;11.00;99.90;;;8.75;100.00;100286.63;10360836;28;19962;-85
2022/11/06 17:01:01;;;;;;;;;;;10.90;99.90;;;8.72;100.00;100289.59;10357906;28;19933;-82
2022/11/06 17:06:05;;;;;;;;;;;10.80;99.90;;;8.72;100.00;100283.47;10332948;28;19934;-82
2022/11/06 17:11:10;;;;;;;;;;;10.90;99.90;;;8.77;100.00;100278.56;10342860;28;19934;-82
2022/11/06 17:16:15;;;;;;;;;;;10.90;99.90;;;8.79;100.00;100280.06;10340124;28;19961;-82
2022/11/06 17:21:22;;;;;;;;;;;10.90;99.90;;;8.80;100.00;100276.41;10345307;28;19942;-83
2022/11/06 17:26:28;;;;;;;;;;;10.90;99.90;;;8.79;100.00;100282.69;10361994;28;19972;-82
2022/11/06 17:31:30;;;;;;;;;;;10.90;99.90;;;8.78;100.00;100277.56;10347681;28;19934;-83
2022/11/06 17:36:35;;;;;;;;;;;11.00;99.90;;;8.76;100.00;100275.06;10332840;28;19934;-83
2022/11/06 17:41:38;;;;;;;;;;;10.90;99.90;;;8.71;100.00;100276.53;10338246;28;19934;-82
2022/11/06 17:46:44;;;;;;;;;;;10.80;99.90;;;8.61;100.00;100287.19;10366885;28;19973;-83
2022/11/06 17:51:58;;;;;;;;;;;10.80;99.90;;;8.53;100.00;100279.19;10336016;28;19934;-83
2022/11/06 17:57:04;;;;;;;;;;;10.70;99.90;;;8.44;100.00;100293.34;10344046;28;19961;-83
2022/11/06 18:02:12;;;;;;;;;;;10.60;99.90;;;8.35;100.00;100307.47;10345254;28;20024;-83
2022/11/06 18:07:18;;;;;;;;;;;10.50;99.90;;;8.26;100.00;100307.34;10345197;28;19934;-83
2022/11/06 18:12:26;;;;;;;;;;;10.50;99.90;;;8.21;100.00;100317.56;10380921;28;19941;-83
2022/11/06 18:17:32;;;;;;;;;;;10.40;99.90;;;8.15;100.00;100312.88;10362088;28;19989;-83
2022/11/06 18:22:35;;;;;;;;;;;10.30;99.90;;;8.04;100.00;100308.66;10345124;28;20409;-83
2022/11/06 18:27:38;;;;;;;;;;;10.20;99.90;;;8.01;100.00;100305.44;10344599;28;19933;-83
2022/11/06 18:32:40;;;;;;;;;;;10.20;99.90;;;8.00;100.00;100304.63;10334979;28;19941;-83
2022/11/06 18:37:43;;;;;;;;;;;10.20;99.90;;;7.98;100.00;100303.13;10371352;28;19934;-83
2022/11/06 18:42:46;;;;;;;;;;;10.20;99.90;;;7.95;100.00;100306.88;10349808;28;19983;-83
2022/11/06 18:47:49;;;;;;;;;;;10.20;99.90;;;7.93;100.00;100313.31;10328136;28;20326;-83
2022/11/06 18:52:52;;;;;;;;;;;10.20;99.90;;;7.89;100.00;100314.56;10359085;28;20449;-83
2022/11/06 18:58:00;;;;;;;;;;;10.10;99.90;;;7.87;100.00;100325.31;10342744;28;19937;-83
2022/11/06 19:03:03;;;;;;;;;;;10.10;99.90;;;7.87;100.00;100324.47;10350531;28;19934;-83
2022/11/06 19:08:06;;;;;;;;;;;10.10;99.90;;;7.89;100.00;100325.97;10338107;28;19965;-83
2022/11/06 19:13:09;;;;;;;;;;;10.10;99.90;;;7.88;100.00;100326.13;10360415;28;20393;-84
2022/11/06 19:18:13;;;;;;;;;;;10.10;99.90;;;7.86;100.00;100328.94;10343731;28;19934;-83
2022/11/06 19:23:16;;;;;;;;;;;10.10;99.90;;;7.80;100.00;100321.59;10361733;28;19933;-83
2022/11/06 19:28:19;;;;;;;;;;;10.10;99.90;;;7.73;100.00;100323.13;10344633;28;19940;-83
2022/11/06 19:33:23;;;;;;;;;;;10.00;99.90;;;7.68;100.00;100323.59;10345382;28;20016;-83
2022/11/06 19:38:26;;;;;;;;;;;9.90;99.90;;;7.64;100.00;100329.31;10342885;28;20020;-83
2022/11/06 19:43:34;;;;;;;;;;;9.90;99.90;;;7.56;100.00;100316.81;10361141;28;19934;-84
2022/11/06 19:48:37;;;;;;;;;;;9.80;99.90;;;7.52;100.00;100323.38;10376318;28;19934;-84
2022/11/06 19:53:41;;;;;;;;;;;9.70;99.90;;;7.44;100.00;100326.75;10341773;28;19934;-83
2022/11/06 19:58:46;;;;;;;;;;;9.70;99.90;;;7.41;100.00;100323.56;10341070;28;19933;-83
2022/11/06 20:03:49;;;;;;;;;;;9.60;99.90;;;7.34;100.00;100327.75;10326829;28;19985;-83
2022/11/06 20:08:52;;;;;;;;;;;9.60;99.90;;;7.28;100.00;100328.31;10338644;28;19933;-83
2022/11/06 20:13:56;;;;;;;;;;;9.50;99.90;;;7.21;100.00;100331.53;10374327;28;19941;-83
2022/11/06 20:19:00;;;;;;;;;;;9.40;99.90;;;7.08;100.00;100324.91;10326362;28;19934;-83
2022/11/06 20:24:04;;;;;;;;;;;9.40;99.90;;;7.02;100.00;100331.59;10349902;28;20097;-83
2022/11/06 20:29:06;;;;;;;;;;;9.30;99.90;;;6.94;100.00;100334.91;10348136;28;20318;-82
2022/11/06 20:34:09;;;;;;;;;;;9.20;99.90;;;6.86;100.00;100342.72;10358686;28;20398;-82
2022/11/06 20:39:15;;;;;;;;;;;9.10;99.90;;;6.77;100.00;100340.91;10340850;28;19934;-82
2022/11/06 20:44:18;;;;;;;;;;;9.00;99.90;;;6.72;100.00;100351.09;10365325;28;20036;-82
2022/11/06 20:49:21;;;;;;;;;;;9.00;99.90;;;6.70;100.00;100351.19;10363361;28;20029;-81
2022/11/06 20:54:24;;;;;;;;;;;9.00;99.90;;;6.70;100.00;100351.19;10359859;28;20390;-82
2022/11/06 20:59:27;;;;;;;;;;;9.00;99.90;;;6.70;100.00;100348.56;10360532;28;20460;-82
2022/11/06 21:04:30;;;;;;;;;;;9.00;99.90;;;6.69;100.00;100348.69;10376765;28;19941;-82
2022/11/06 21:09:33;;;;;;;;;;;9.00;99.90;;;6.71;100.00;100347.56;10345721;28;19941;-82
2022/11/06 21:14:36;;;;;;;;;;;9.00;99.90;;;6.73;100.00;100349.28;10379479;28;19934;-82
2022/11/06 21:19:39;;;;;;;;;;;9.00;99.90;;;6.70;100.00;100353.84;10344846;28;19934;-83
2022/11/06 21:24:41;;;;;;;;;;;9.00;99.90;;;6.72;100.00;100359.00;10353688;28;20028;-83
2022/11/06 21:29:44;;;;;;;;;;;9.00;99.90;;;6.71;100.00;100349.38;10364021;28;19934;-83
2022/11/06 21:34:47;;;;;;;;;;;9.00;99.90;;;6.71;100.00;100360.78;10329142;28;20181;-82
2022/11/06 21:39:50;;;;;;;;;;;9.00;99.90;;;6.73;100.00;100359.84;10330656;28;20004;-83
2022/11/06 21:44:53;;;;;;;;;;;9.00;99.90;;;6.76;100.00;100348.97;10347398;28;19934;-82
2022/11/06 21:49:56;;;;;;;;;;;9.00;99.90;;;6.79;100.00;100356.63;10323341;28;20342;-82
2022/11/06 22:00:20;;;;;;;;;;;9.10;99.90;;;6.91;100.00;100359.00;10340702;28;19965;-85
2022/11/06 22:05:23;;;;;;;;;;;9.20;99.90;;;6.93;100.00;100359.69;10351194;28;19934;-84
2022/11/06 22:10:26;;;;;;;;;;;9.20;99.90;;;6.98;100.00;100369.81;10355121;28;20300;-82
2022/11/06 22:15:30;;;;;;;;;;;9.30;99.90;;;7.01;100.00;100369.53;10361452;28;19934;-82
2022/11/06 22:20:32;;;;;;;;;;;9.30;99.90;;;7.03;100.00;100372.88;10340139;28;19934;-83
2022/11/06 22:25:38;;;;;;;;;;;9.30;99.90;;;7.02;100.00;100373.00;10358497;28;19997;-82
2022/11/06 22:30:40;;;;;;;;;;;9.30;99.90;;;7.02;100.00;100367.72;10355499;28;19938;-82
2022/11/06 22:35:43;;;;;;;;;;;9.30;99.90;;;7.03;100.00;100370.25;10312294;28;19982;-82
2022/11/06 22:40:54;;;;;;;;;;;9.30;99.90;;;7.05;100.00;100365.63;10344853;28;20362;-82
2022/11/06 22:45:59;;;;;;;;;;;9.40;99.90;;;7.06;100.00;100372.59;10357397;28;20036;-82
2022/11/06 22:51:04;;;;;;;;;;;9.30;99.90;;;7.07;100.00;100376.91;10334005;28;19934;-83
2022/11/06 22:56:07;;;;;;;;;;;9.30;99.90;;;7.07;100.00;100371.59;10341215;28;19941;-82
2022/11/06 23:01:10;;;;;;;;;;;9.40;99.90;;;7.08;100.00;100370.66;10322703;28;20358;-83
2022/11/06 23:06:13;;;;;;;;;;;9.40;99.90;;;7.12;100.00;100371.19;10354174;28;19934;-82
2022/11/06 23:11:17;;;;;;;;;;;9.40;99.90;;;7.16;100.00;100362.84;10332551;28;19935;-82
2022/11/06 23:16:55;;;;;;;;;;;9.40;99.90;;;7.22;100.00;100364.91;10344069;28;19934;-82
2022/11/06 23:21:45;;;;;;;;;;;9.50;99.90;;;7.27;100.00;100363.66;10330479;28;20294;-82
2022/11/06 23:26:48;;;;;;;;;;;9.60;99.90;;;7.33;100.00;100365.75;10336885;28;19933;-83
2022/11/06 23:31:51;;;;;;;;;;;9.60;99.90;;;7.39;100.00;100376.56;10324230;28;20008;-83
2022/11/06 23:36:54;;;;;;;;;;;9.70;99.90;;;7.45;100.00;100383.09;10311435;28;20398;-83